Current Weather

Half Moon Bay

Half Moon Bay, California (KHAF)

Report from: Tuesday, July 16, 2024 7:35 AM PDT
Current time: Tuesday, July 16, 2024 8:07 AM PDT

Nearby weather – Weather history – Daily summaries
Weather forecast

Temperature15.0°C (59.0°F)
Dew point13.0°C (55.4°F)
Winds Calm
Visibility10 mi. (16.1 km)
Clouds Ceiling: Overcast 2,100 ft. (640 m)
Altimeter30.04 in.Hg (1017 mB)
Relative humidity88 %
Density altitude73 ft. (22 m)
Remarks Fully automated report
Automated weather observing station with precipitation discriminator
Flight conditions Marginal Visual Meteorological Conditions
Raw dataKHAF 161435Z AUTO 00000KT 10SM OVC021 15/13 A3004 RMK AO2
An error has occurred. This application may no longer respond until reloaded. Reload 🗙